createdAt,value
2023-05-06T00:00:05.151Z,12.40
2023-05-06T00:04:15.203Z,12.40
2023-05-06T00:08:19.458Z,12.40
2023-05-06T00:12:22.281Z,12.40
2023-05-06T00:16:25.105Z,12.30
2023-05-06T00:20:28.659Z,12.30
2023-05-06T00:24:32.734Z,12.40
2023-05-06T00:28:35.580Z,12.40
2023-05-06T00:32:38.445Z,12.40
2023-05-06T00:36:42.778Z,12.40
2023-05-06T00:40:46.992Z,12.40
2023-05-06T00:44:49.924Z,12.30
2023-05-06T00:48:53.292Z,12.30
2023-05-06T00:53:00.614Z,12.20
2023-05-06T00:57:04.862Z,12.20
2023-05-06T01:01:08.315Z,12.20
2023-05-06T01:05:12.251Z,12.30
2023-05-06T01:09:25.139Z,12.30
2023-05-06T01:13:38.592Z,12.30
2023-05-06T01:17:45.796Z,12.30
2023-05-06T01:21:51.872Z,12.30
2023-05-06T01:25:56.069Z,12.30
2023-05-06T01:30:00.572Z,12.30
2023-05-06T01:34:18.590Z,12.30
2023-05-06T01:38:31.224Z,12.30
2023-05-06T01:42:36.133Z,12.30
2023-05-06T01:46:39.502Z,12.30
2023-05-06T01:50:42.692Z,12.30
2023-05-06T01:54:45.471Z,12.30
2023-05-06T01:58:49.582Z,12.30
2023-05-06T02:02:52.528Z,12.30
2023-05-06T02:06:55.345Z,12.30
2023-05-06T02:10:58.335Z,12.30
2023-05-06T02:15:02.553Z,12.30
2023-05-06T02:19:06.256Z,12.20
2023-05-06T02:23:09.158Z,12.20
2023-05-06T02:27:11.950Z,12.20
2023-05-06T02:31:16.826Z,12.10
2023-05-06T02:35:19.650Z,12.10
2023-05-06T02:39:22.384Z,12.10
2023-05-06T02:43:25.654Z,12.00
2023-05-06T02:47:29.832Z,12.00
2023-05-06T02:51:32.601Z,12.00
2023-05-06T02:55:35.498Z,12.00
2023-05-06T02:59:38.309Z,11.90
2023-05-06T03:03:42.714Z,11.90
2023-05-06T03:07:45.444Z,11.80
2023-05-06T03:11:48.378Z,11.70
2023-05-06T03:15:54.654Z,11.70
2023-05-06T03:19:59.360Z,11.70
2023-05-06T03:24:03.095Z,11.60
2023-05-06T03:28:07.041Z,11.60
2023-05-06T03:32:11.867Z,11.60
2023-05-06T03:36:19.902Z,11.60
2023-05-06T03:40:24.137Z,11.60
2023-05-06T03:44:27.884Z,11.50
2023-05-06T03:48:31.274Z,11.50
2023-05-06T03:52:35.472Z,11.40
2023-05-06T03:56:38.236Z,11.40
2023-05-06T04:00:41.964Z,11.40
2023-05-06T04:04:44.818Z,11.30
2023-05-06T04:08:49.506Z,11.20
2023-05-06T04:12:53.786Z,11.10
2023-05-06T04:17:01.799Z,11.00
2023-05-06T04:21:04.687Z,11.00
2023-05-06T04:25:13.027Z,11.00
2023-05-06T04:29:16.871Z,10.90
2023-05-06T04:33:30.234Z,10.90
2023-05-06T04:37:34.827Z,10.90
2023-05-06T04:41:47.877Z,10.80
2023-05-06T04:45:55.180Z,10.80
2023-05-06T04:50:02.243Z,10.80
2023-05-06T04:54:06.746Z,10.80
2023-05-06T04:58:10.947Z,10.90
2023-05-06T05:02:14.634Z,11.00
2023-05-06T05:06:19.042Z,11.10
2023-05-06T05:10:22.345Z,11.20
2023-05-06T05:14:28.369Z,11.40
2023-05-06T05:18:31.307Z,11.50
2023-05-06T05:22:39.879Z,11.70
2023-05-06T05:26:43.558Z,11.90
2023-05-06T05:30:47.978Z,13.10
2023-05-06T05:34:50.910Z,16.50
2023-05-06T05:38:56.539Z,18.90
2023-05-06T05:43:02.876Z,19.80
2023-05-06T05:47:13.687Z,19.60
2023-05-06T05:51:16.628Z,19.60
2023-05-06T05:55:21.177Z,18.50
2023-05-06T05:59:24.592Z,18.80
2023-05-06T06:03:30.364Z,18.90
2023-05-06T06:07:36.542Z,18.70
2023-05-06T06:11:39.622Z,18.30
2023-05-06T06:15:43.152Z,17.50
2023-05-06T06:19:47.794Z,17.20
2023-05-06T06:23:50.644Z,17.30
2023-05-06T06:27:55.679Z,17.20
2023-05-06T06:32:00.577Z,17.60
2023-05-06T06:36:05.628Z,18.40
2023-05-06T06:40:10.255Z,17.30
2023-05-06T06:44:13.027Z,16.40
2023-05-06T06:48:16.393Z,15.70
2023-05-06T06:52:20.562Z,15.10
2023-05-06T06:56:23.629Z,15.00
2023-05-06T07:00:26.625Z,14.90
2023-05-06T07:04:29.797Z,14.70
2023-05-06T07:08:33.943Z,15.10
2023-05-06T07:12:36.966Z,15.20
2023-05-06T07:16:40.108Z,15.10
2023-05-06T07:20:43.145Z,16.60
2023-05-06T07:24:48.947Z,17.40
2023-05-06T07:28:51.940Z,16.90
2023-05-06T07:32:55.045Z,16.30
2023-05-06T07:36:58.136Z,18.10
2023-05-06T07:41:02.517Z,20.30
2023-05-06T07:45:07.536Z,21.60
2023-05-06T07:49:10.609Z,21.80
2023-05-06T07:53:13.949Z,21.80
2023-05-06T07:57:18.316Z,21.50
2023-05-06T08:01:21.103Z,21.20
2023-05-06T08:05:23.860Z,20.60
2023-05-06T08:09:26.906Z,20.80
2023-05-06T08:13:33.374Z,20.90
2023-05-06T08:17:36.276Z,21.30
2023-05-06T08:21:39.351Z,21.50
2023-05-06T08:25:42.873Z,21.70
2023-05-06T08:29:47.104Z,22.00
2023-05-06T08:33:51.945Z,21.20
2023-05-06T08:37:59.926Z,20.80
2023-05-06T08:42:04.844Z,20.60
2023-05-06T08:46:09.679Z,20.80
2023-05-06T08:50:13.372Z,21.40
2023-05-06T08:54:16.948Z,21.60
2023-05-06T08:58:20.209Z,21.60
2023-05-06T09:02:25.119Z,21.70
2023-05-06T09:06:28.223Z,22.00
2023-05-06T09:10:34.108Z,22.00
2023-05-06T09:14:37.004Z,21.50
2023-05-06T09:18:41.446Z,21.80
2023-05-06T09:22:44.495Z,22.00
2023-05-06T09:26:48.626Z,22.10
2023-05-06T09:30:52.000Z,21.60
2023-05-06T09:34:57.078Z,21.60
2023-05-06T09:39:00.128Z,22.00
2023-05-06T09:43:03.734Z,22.00
2023-05-06T09:47:08.391Z,21.90
2023-05-06T09:51:13.795Z,22.00
2023-05-06T09:55:18.470Z,21.90
2023-05-06T09:59:22.168Z,22.30
2023-05-06T10:03:26.029Z,22.20
2023-05-06T10:07:30.720Z,22.00
2023-05-06T10:11:34.094Z,22.50
2023-05-06T10:15:38.333Z,23.00
2023-05-06T10:19:44.791Z,23.30
2023-05-06T10:23:56.456Z,23.20
2023-05-06T10:27:59.868Z,22.50
2023-05-06T10:32:04.268Z,22.20
2023-05-06T10:36:20.061Z,21.90
2023-05-06T10:40:24.914Z,21.50
2023-05-06T10:44:59.486Z,21.80
2023-05-06T10:49:19.930Z,21.60
2023-05-06T10:53:57.247Z,21.70
2023-05-06T10:58:07.906Z,21.40
2023-05-06T11:02:11.116Z,21.40
2023-05-06T11:49:31.450Z,22.10
2023-05-06T11:53:34.265Z,22.20
2023-05-06T11:57:37.115Z,21.90
2023-05-06T12:01:42.625Z,21.40
2023-05-06T12:05:48.292Z,21.40
2023-05-06T12:09:51.888Z,21.40
2023-05-06T12:13:54.886Z,21.50
2023-05-06T12:17:58.255Z,21.90
2023-05-06T12:22:18.923Z,22.40
2023-05-06T12:26:22.193Z,22.20
2023-05-06T12:30:31.765Z,22.10
2023-05-06T12:34:38.601Z,22.10
2023-05-06T12:38:50.964Z,22.10
2023-05-06T12:42:57.029Z,22.20
2023-05-06T12:47:00.901Z,22.40
2023-05-06T12:51:18.508Z,22.50
2023-05-06T12:55:23.368Z,22.60
2023-05-06T12:59:26.863Z,22.50
2023-05-06T13:03:30.895Z,22.60
2023-05-06T13:07:33.762Z,22.70
2023-05-06T13:11:37.947Z,22.70
2023-05-06T13:15:41.154Z,22.90
2023-05-06T13:19:56.064Z,22.60
2023-05-06T13:23:59.255Z,22.10
2023-05-06T13:28:03.462Z,22.30
2023-05-06T13:32:08.832Z,22.50
2023-05-06T13:36:12.076Z,22.60
2023-05-06T13:40:15.809Z,22.70
2023-05-06T13:44:24.554Z,22.40
2023-05-06T13:48:27.676Z,22.50
2023-05-06T13:52:32.464Z,22.70
2023-05-06T13:56:35.713Z,22.80
2023-05-06T14:00:40.166Z,22.80
2023-05-06T14:04:43.374Z,22.90
2023-05-06T14:08:46.887Z,23.00
2023-05-06T14:12:49.677Z,23.10
2023-05-06T14:16:54.635Z,23.00
2023-05-06T14:20:57.642Z,22.70
2023-05-06T14:25:00.582Z,22.70
2023-05-06T14:29:03.846Z,22.30
2023-05-06T14:33:08.411Z,22.20
2023-05-06T14:37:11.307Z,22.30
2023-05-06T14:41:14.249Z,22.20
2023-05-06T14:45:17.322Z,22.30
2023-05-06T14:49:21.910Z,22.20
2023-05-06T14:53:24.776Z,22.40
2023-05-06T14:57:27.786Z,22.90
2023-05-06T15:01:32.228Z,23.40
2023-05-06T15:05:37.145Z,23.60
2023-05-06T15:09:43.803Z,23.80
2023-05-06T15:13:46.749Z,24.00
2023-05-06T15:17:52.367Z,24.30
2023-05-06T15:21:57.177Z,24.00
2023-05-06T15:26:01.067Z,24.10
2023-05-06T15:30:04.399Z,24.40
2023-05-06T15:34:07.814Z,24.10
2023-05-06T15:38:12.290Z,24.00
2023-05-06T15:42:15.257Z,23.70
2023-05-06T15:46:18.330Z,23.60
2023-05-06T15:50:32.828Z,23.40
2023-05-06T15:54:37.977Z,23.20
2023-05-06T15:58:42.783Z,22.90
2023-05-06T16:02:45.754Z,22.60
2023-05-06T16:06:48.760Z,22.70
2023-05-06T16:10:53.442Z,22.70
2023-05-06T16:14:56.331Z,22.30
2023-05-06T16:18:59.420Z,22.10
2023-05-06T16:23:03.563Z,22.00
2023-05-06T16:27:08.058Z,21.90
2023-05-06T16:31:10.889Z,21.80
2023-05-06T16:35:13.912Z,21.60
2023-05-06T16:39:17.019Z,21.40
2023-05-06T16:43:21.351Z,21.10
2023-05-06T16:47:24.277Z,21.00
2023-05-06T16:51:27.234Z,20.90
2023-05-06T16:55:30.052Z,20.80
2023-05-06T16:59:34.306Z,20.80
2023-05-06T17:03:37.914Z,20.60
2023-05-06T17:07:40.946Z,20.50
2023-05-06T17:11:43.874Z,20.40
2023-05-06T17:15:51.418Z,20.30
2023-05-06T17:19:54.391Z,20.20
2023-05-06T17:23:57.221Z,20.10
2023-05-06T17:28:00.131Z,19.90
2023-05-06T17:32:04.749Z,19.70
2023-05-06T17:36:08.119Z,19.50
2023-05-06T17:40:13.078Z,19.50
2023-05-06T17:44:17.572Z,19.40
2023-05-06T17:48:23.230Z,19.20
2023-05-06T17:52:26.764Z,19.20
2023-05-06T17:56:30.403Z,19.10
2023-05-06T18:00:33.489Z,19.00
2023-05-06T18:04:37.731Z,18.90
2023-05-06T18:08:41.019Z,18.80
2023-05-06T18:12:45.531Z,18.70
2023-05-06T18:16:48.766Z,18.60
2023-05-06T18:20:53.149Z,18.60
2023-05-06T18:24:55.996Z,18.60
2023-05-06T18:28:58.955Z,18.40
2023-05-06T18:33:02.045Z,18.40
2023-05-06T18:37:06.533Z,18.30
2023-05-06T18:41:09.600Z,18.30
2023-05-06T18:45:13.254Z,18.20
2023-05-06T18:49:16.573Z,18.10
2023-05-06T18:53:21.090Z,18.00
2023-05-06T18:57:26.484Z,17.90
2023-05-06T19:01:29.559Z,17.90
2023-05-06T19:05:32.728Z,17.80
2023-05-06T19:09:42.781Z,17.70
2023-05-06T19:13:46.307Z,17.70
2023-05-06T19:17:49.522Z,17.70
2023-05-06T19:21:52.545Z,17.60
2023-05-06T19:25:57.083Z,17.60
2023-05-06T19:30:00.444Z,17.60
2023-05-06T19:34:03.587Z,17.50
2023-05-06T19:38:07.851Z,17.40
2023-05-06T19:42:12.480Z,17.20
2023-05-06T19:46:17.564Z,17.00
2023-05-06T19:50:20.621Z,16.80
2023-05-06T19:54:23.915Z,16.40
2023-05-06T19:58:28.407Z,16.10
2023-05-06T20:02:31.616Z,16.00
2023-05-06T20:06:34.780Z,15.90
2023-05-06T20:10:38.992Z,15.80
2023-05-06T20:14:43.299Z,15.70
2023-05-06T20:18:47.764Z,15.60
2023-05-06T20:22:50.828Z,15.50
2023-05-06T20:26:53.881Z,15.40
2023-05-06T20:30:59.718Z,15.30
2023-05-06T20:35:03.087Z,15.20
2023-05-06T20:39:06.276Z,15.30
2023-05-06T20:43:09.231Z,15.30
2023-05-06T20:47:13.963Z,15.20
2023-05-06T20:51:16.886Z,15.20
2023-05-06T20:55:22.986Z,15.20
2023-05-06T20:59:27.023Z,15.20
2023-05-06T21:03:31.243Z,15.20
2023-05-06T21:07:34.361Z,15.30
2023-05-06T21:11:37.980Z,15.20
2023-05-06T21:15:40.702Z,15.20
2023-05-06T21:19:44.746Z,15.20
2023-05-06T21:23:48.021Z,15.10
2023-05-06T21:27:50.747Z,15.10
2023-05-06T21:31:53.488Z,15.10
2023-05-06T21:35:58.269Z,15.10
2023-05-06T21:40:04.658Z,15.10
2023-05-06T21:44:08.875Z,15.10
2023-05-06T21:48:11.729Z,15.10
2023-05-06T21:52:15.922Z,15.10
2023-05-06T21:56:19.073Z,15.10
2023-05-06T22:00:22.880Z,15.10
2023-05-06T22:04:26.174Z,15.10
2023-05-06T22:08:30.715Z,15.00
2023-05-06T22:12:33.744Z,15.00
2023-05-06T22:16:38.093Z,15.00
2023-05-06T22:20:41.753Z,14.90
2023-05-06T22:24:45.805Z,14.90
2023-05-06T22:28:48.505Z,14.90
2023-05-06T22:32:51.275Z,14.90
2023-05-06T22:36:54.056Z,14.90
2023-05-06T22:40:58.203Z,14.90
2023-05-06T22:45:02.645Z,14.90
2023-05-06T22:49:05.658Z,14.90
2023-05-06T22:53:14.910Z,14.90
2023-05-06T22:57:22.766Z,14.90
2023-05-06T23:01:31.574Z,14.90
2023-05-06T23:05:34.337Z,14.90
2023-05-06T23:09:37.406Z,14.90
2023-05-06T23:13:41.462Z,14.90
2023-05-06T23:22:14.731Z,14.80
2023-05-06T23:26:17.645Z,14.80
2023-05-06T23:30:22.075Z,14.80
2023-05-06T23:34:24.885Z,14.80
2023-05-06T23:38:27.860Z,14.70
2023-05-06T23:42:30.685Z,14.70
2023-05-06T23:46:35.013Z,14.60
2023-05-06T23:50:37.848Z,14.60
2023-05-06T23:54:40.709Z,14.60
2023-05-06T23:58:43.550Z,14.60
